Time,TemperatureF,DewpointF,PressureIn,WindDirection,WindDirectionDegrees,WindSpeedMPH,WindSpeedGustMPH,Humidity,HourlyPrecipIn,Conditions,Clouds,dailyrainin,SoftwareType,DateUTC
2013-02-05 00:06:00,22.4,20.0,29.91,North,10,3.0,-999.0,89,-99.99,,,0.02,weatherlink.com 1.10,2013-02-05 05:06:00,
2013-02-05 00:20:00,22.2,20.0,29.91,North,10,4.0,-999.0,89,-99.99,,,0.02,weatherlink.com 1.10,2013-02-05 05:20:00,
2013-02-05 00:35:00,21.8,19.0,29.91,North,10,0.0,-999.0,89,-99.99,,,0.02,weatherlink.com 1.10,2013-02-05 05:35:00,
2013-02-05 00:50:00,21.3,19.0,29.91,North,10,2.0,-999.0,89,-99.99,,,0.02,weatherlink.com 1.10,2013-02-05 05:50:00,
2013-02-05 01:05:00,20.6,18.0,29.91,North,10,2.0,-999.0,89,-99.99,,,0.02,weatherlink.com 1.10,2013-02-05 06:05:00,
2013-02-05 01:20:00,20.3,18.0,29.91,North,10,2.0,-999.0,89,-99.99,,,0.02,weatherlink.com 1.10,2013-02-05 06:20:00,
2013-02-05 01:35:00,19.9,17.0,29.91,North,10,1.0,-999.0,89,-99.99,,,0.02,weatherlink.com 1.10,2013-02-05 06:35:00,
2013-02-05 01:50:00,19.5,17.0,29.91,North,10,0.0,-999.0,89,-99.99,,,0.02,weatherlink.com 1.10,2013-02-05 06:50:00,
2013-02-05 02:05:00,19.7,17.0,29.92,North,10,0.0,-999.0,89,-99.99,,,0.02,weatherlink.com 1.10,2013-02-05 07:05:00,
2013-02-05 02:21:00,19.2,17.0,29.92,North,10,0.0,-999.0,89,-99.99,,,0.02,weatherlink.com 1.10,2013-02-05 07:21:00,
2013-02-05 02:36:00,18.3,16.0,29.92,North,10,0.0,-999.0,89,-99.99,,,0.02,weatherlink.com 1.10,2013-02-05 07:36:00,
2013-02-05 02:50:00,18.3,16.0,29.93,North,10,1.0,-999.0,89,-99.99,,,0.02,weatherlink.com 1.10,2013-02-05 07:50:00,
2013-02-05 03:05:00,18.8,16.0,29.92,North,10,0.0,-999.0,89,-99.99,,,0.02,weatherlink.com 1.10,2013-02-05 08:05:00,
2013-02-05 03:20:00,18.3,16.0,29.91,North,10,0.0,-999.0,89,-99.99,,,0.02,weatherlink.com 1.10,2013-02-05 08:20:00,
2013-02-05 03:35:00,18.3,16.0,29.92,North,10,0.0,-999.0,90,-99.99,,,0.02,weatherlink.com 1.10,2013-02-05 08:35:00,
2013-02-05 03:50:00,18.3,16.0,29.92,North,10,0.0,-999.0,90,-99.99,,,0.02,weatherlink.com 1.10,2013-02-05 08:50:00,
2013-02-05 04:05:00,16.2,13.0,29.92,North,10,1.0,-999.0,88,-99.99,,,0.02,weatherlink.com 1.10,2013-02-05 09:05:00,
2013-02-05 04:20:00,14.0,11.0,29.92,North,10,2.0,-999.0,89,-99.99,,,0.02,weatherlink.com 1.10,2013-02-05 09:20:00,
2013-02-05 04:35:00,14.3,12.0,29.91,North,10,2.0,-999.0,89,-99.99,,,0.02,weatherlink.com 1.10,2013-02-05 09:35:00,
2013-02-05 04:51:00,14.8,12.0,29.91,North,10,0.0,-999.0,88,-99.99,,,0.02,weatherlink.com 1.10,2013-02-05 09:51:00,
2013-02-05 05:06:00,14.4,12.0,29.91,North,10,1.0,-999.0,89,-99.99,,,0.02,weatherlink.com 1.10,2013-02-05 10:06:00,
2013-02-05 05:20:00,14.6,12.0,29.91,North,10,1.0,-999.0,89,-99.99,,,0.02,weatherlink.com 1.10,2013-02-05 10:20:00,
2013-02-05 05:35:00,15.1,13.0,29.90,North,10,1.0,-999.0,89,-99.99,,,0.02,weatherlink.com 1.10,2013-02-05 10:35:00,
2013-02-05 05:50:00,16.1,14.0,29.90,North,10,0.0,-999.0,89,-99.99,,,0.02,weatherlink.com 1.10,2013-02-05 10:50:00,
2013-02-05 06:05:00,15.9,13.0,29.91,North,10,4.0,-999.0,89,-99.99,,,0.02,weatherlink.com 1.10,2013-02-05 11:05:00,
2013-02-05 06:20:00,14.3,11.0,29.90,North,10,4.0,-999.0,88,-99.99,,,0.02,weatherlink.com 1.10,2013-02-05 11:20:00,
2013-02-05 06:35:00,14.0,11.0,29.91,North,10,2.0,-999.0,88,-99.99,,,0.02,weatherlink.com 1.10,2013-02-05 11:35:00,
2013-02-05 06:50:00,10.5,7.0,29.93,North,10,5.0,-999.0,86,-99.99,,,0.02,weatherlink.com 1.10,2013-02-05 11:50:00,
2013-02-05 07:05:00,9.3,6.0,29.93,North,10,3.0,-999.0,85,-99.99,,,0.02,weatherlink.com 1.10,2013-02-05 12:05:00,
2013-02-05 07:20:00,9.7,6.0,29.92,North,10,2.0,-999.0,85,-99.99,,,0.02,weatherlink.com 1.10,2013-02-05 12:20:00,
2013-02-05 07:35:00,9.5,6.0,29.91,North,10,2.0,-999.0,85,-99.99,,,0.02,weatherlink.com 1.10,2013-02-05 12:35:00,
2013-02-05 07:50:00,8.1,4.0,29.92,North,10,0.0,-999.0,84,-99.99,,,0.02,weatherlink.com 1.10,2013-02-05 12:50:00,
2013-02-05 08:05:00,6.1,2.0,29.93,North,10,0.0,-999.0,83,-99.99,,,0.02,weatherlink.com 1.10,2013-02-05 13:05:00,
2013-02-05 08:20:00,5.6,2.0,29.94,North,10,1.0,-999.0,83,-99.99,,,0.02,weatherlink.com 1.10,2013-02-05 13:20:00,
2013-02-05 08:35:00,5.4,1.0,29.93,North,10,2.0,-999.0,83,-99.99,,,0.02,weatherlink.com 1.10,2013-02-05 13:35:00,
2013-02-05 08:50:00,7.4,4.0,29.94,North,10,0.0,-999.0,84,-99.99,,,0.02,weatherlink.com 1.10,2013-02-05 13:50:00,
2013-02-05 09:05:00,8.6,5.0,29.93,North,10,0.0,-999.0,85,-99.99,,,0.02,weatherlink.com 1.10,2013-02-05 14:05:00,
2013-02-05 09:21:00,10.2,7.0,29.93,North,10,0.0,-999.0,86,-99.99,,,0.02,weatherlink.com 1.10,2013-02-05 14:21:00,
2013-02-05 09:36:00,11.6,8.0,29.93,North,10,0.0,-999.0,86,-99.99,,,0.02,weatherlink.com 1.10,2013-02-05 14:36:00,
2013-02-05 09:50:00,14.0,11.0,29.93,North,10,0.0,-999.0,88,-99.99,,,0.02,weatherlink.com 1.10,2013-02-05 14:50:00,
2013-02-05 10:05:00,15.4,13.0,29.93,North,10,0.0,-999.0,89,-99.99,,,0.02,weatherlink.com 1.10,2013-02-05 15:05:00,
2013-02-05 10:20:00,17.0,15.0,29.93,North,10,1.0,-999.0,90,-99.99,,,0.02,weatherlink.com 1.10,2013-02-05 15:20:00,
2013-02-05 10:35:00,18.4,16.0,29.93,North,10,3.0,-999.0,90,-99.99,,,0.02,weatherlink.com 1.10,2013-02-05 15:35:00,
2013-02-05 10:50:00,19.9,18.0,29.93,North,10,4.0,-999.0,91,-99.99,,,0.02,weatherlink.com 1.10,2013-02-05 15:50:00,
2013-02-05 11:06:00,20.6,19.0,29.92,North,10,5.0,-999.0,92,-99.99,,,0.02,weatherlink.com 1.10,2013-02-05 16:06:00,
2013-02-05 11:21:00,21.6,20.0,29.92,SSE,161,9.0,-999.0,92,-99.99,,,0.02,weatherlink.com 1.10,2013-02-05 16:21:00,
2013-02-05 11:36:00,22.4,21.0,29.92,South,184,7.0,-999.0,92,-99.99,,,0.02,weatherlink.com 1.10,2013-02-05 16:36:00,
2013-02-05 11:51:00,22.7,21.0,29.91,South,187,12.0,-999.0,91,-99.99,,,0.02,weatherlink.com 1.10,2013-02-05 16:51:00,
2013-02-05 12:06:00,24.1,22.0,29.90,SSW,198,10.0,-999.0,90,-99.99,,,0.02,weatherlink.com 1.10,2013-02-05 17:06:00,
2013-02-05 12:20:00,24.7,21.0,29.89,South,188,11.0,-999.0,87,-99.99,,,0.00,weatherlink.com 1.10,2013-02-05 17:20:00,
2013-02-05 12:36:00,25.3,21.0,29.88,SSW,200,11.0,-999.0,83,-99.99,,,0.00,weatherlink.com 1.10,2013-02-05 17:36:00,
2013-02-05 12:51:00,25.8,20.0,29.88,South,190,12.0,-999.0,80,-99.99,,,0.00,weatherlink.com 1.10,2013-02-05 17:51:00,
2013-02-05 13:06:00,26.1,20.0,29.87,SSW,210,9.0,-999.0,77,-99.99,,,0.00,weatherlink.com 1.10,2013-02-05 18:06:00,
2013-02-05 13:21:00,26.6,20.0,29.86,SSW,202,8.0,-999.0,77,-99.99,,,0.00,weatherlink.com 1.10,2013-02-05 18:21:00,
2013-02-05 13:36:00,27.2,20.0,29.85,South,188,9.0,-999.0,75,-99.99,,,0.00,weatherlink.com 1.10,2013-02-05 18:36:00,
2013-02-05 13:51:00,27.0,20.0,29.85,SSW,193,15.0,-999.0,74,-99.99,,,0.00,weatherlink.com 1.10,2013-02-05 18:51:00,
2013-02-05 14:06:00,26.6,19.0,29.84,SSW,196,12.0,-999.0,74,-99.99,,,0.00,weatherlink.com 1.10,2013-02-05 19:06:00,
2013-02-05 14:21:00,27.0,20.0,29.83,SSW,196,11.0,-999.0,75,-99.99,,,0.00,weatherlink.com 1.10,2013-02-05 19:21:00,
2013-02-05 14:36:00,27.6,21.0,29.83,SSW,192,10.0,-999.0,76,-99.99,,,0.01,weatherlink.com 1.10,2013-02-05 19:36:00,
2013-02-05 14:51:00,28.2,21.0,29.84,SSW,203,11.0,-999.0,74,-99.99,,,0.01,weatherlink.com 1.10,2013-02-05 19:51:00,
2013-02-05 15:06:00,28.4,20.0,29.82,SSW,204,13.0,-999.0,72,-99.99,,,0.01,weatherlink.com 1.10,2013-02-05 20:06:00,
2013-02-05 15:21:00,28.4,21.0,29.82,SSW,208,8.0,-999.0,73,-99.99,,,0.01,weatherlink.com 1.10,2013-02-05 20:21:00,
2013-02-05 15:36:00,28.4,21.0,29.82,SSW,195,11.0,-999.0,73,-99.99,,,0.01,weatherlink.com 1.10,2013-02-05 20:36:00,
2013-02-05 15:51:00,28.4,21.0,29.82,SSW,192,8.0,-999.0,74,-99.99,,,0.01,weatherlink.com 1.10,2013-02-05 20:51:00,
2013-02-05 16:06:00,28.8,22.0,29.82,SSW,192,7.0,-999.0,75,-99.99,,,0.01,weatherlink.com 1.10,2013-02-05 21:06:00,
2013-02-05 16:20:00,29.0,22.0,29.82,SSW,194,6.0,-999.0,74,-99.99,,,0.01,weatherlink.com 1.10,2013-02-05 21:20:00,
2013-02-05 16:36:00,29.1,22.0,29.82,SSW,195,5.0,-999.0,76,-99.99,,,0.01,weatherlink.com 1.10,2013-02-05 21:36:00,
2013-02-05 16:51:00,29.3,23.0,29.83,SSW,213,3.0,-999.0,78,-99.99,,,0.01,weatherlink.com 1.10,2013-02-05 21:51:00,
2013-02-05 17:06:00,29.3,23.0,29.84,SW,217,4.0,-999.0,78,-99.99,,,0.01,weatherlink.com 1.10,2013-02-05 22:06:00,
2013-02-05 17:21:00,29.1,24.0,29.86,WSW,252,10.0,-999.0,80,-99.99,,,0.01,weatherlink.com 1.10,2013-02-05 22:21:00,
2013-02-05 17:36:00,28.2,25.0,29.86,WSW,247,7.0,-999.0,87,-99.99,,,0.01,weatherlink.com 1.10,2013-02-05 22:36:00,
2013-02-05 17:51:00,27.8,25.0,29.86,WSW,249,6.0,-999.0,90,-99.99,,,0.01,weatherlink.com 1.10,2013-02-05 22:51:00,
2013-02-05 18:06:00,27.8,26.0,29.86,WSW,248,6.0,-999.0,92,-99.99,,,0.01,weatherlink.com 1.10,2013-02-05 23:06:00,
2013-02-05 18:21:00,27.8,26.0,29.87,WSW,244,5.0,-999.0,92,-99.99,,,0.01,weatherlink.com 1.10,2013-02-05 23:21:00,
2013-02-05 18:36:00,27.8,26.0,29.87,WSW,241,4.0,-999.0,93,-99.99,,,0.01,weatherlink.com 1.10,2013-02-05 23:36:00,
2013-02-05 18:51:00,27.3,26.0,29.87,SW,236,5.0,-999.0,93,-99.99,,,0.01,weatherlink.com 1.10,2013-02-05 23:51:00,
2013-02-05 19:06:00,26.4,25.0,29.87,SW,234,3.0,-999.0,93,-99.99,,,0.01,weatherlink.com 1.10,2013-02-06 00:06:00,
2013-02-05 19:20:00,26.9,25.0,29.88,SW,234,4.0,-999.0,94,-99.99,,,0.01,weatherlink.com 1.10,2013-02-06 00:20:00,
2013-02-05 19:35:00,27.0,26.0,29.89,SW,234,4.0,-999.0,94,-99.99,,,0.01,weatherlink.com 1.10,2013-02-06 00:35:00,
2013-02-05 19:50:00,27.8,26.0,29.89,SW,234,4.0,-999.0,94,-99.99,,,0.01,weatherlink.com 1.10,2013-02-06 00:50:00,
2013-02-05 20:05:00,28.2,27.0,29.89,SW,234,5.0,-999.0,94,-99.99,,,0.01,weatherlink.com 1.10,2013-02-06 01:05:00,
2013-02-05 20:20:00,28.5,27.0,29.90,SW,236,5.0,-999.0,94,-99.99,,,0.01,weatherlink.com 1.10,2013-02-06 01:20:00,
2013-02-05 20:35:00,28.8,27.0,29.90,WSW,240,7.0,-999.0,94,-99.99,,,0.01,weatherlink.com 1.10,2013-02-06 01:35:00,
2013-02-05 20:50:00,29.1,28.0,29.91,WSW,251,6.0,-999.0,94,-99.99,,,0.01,weatherlink.com 1.10,2013-02-06 01:50:00,
2013-02-05 21:20:00,29.7,28.0,29.93,West,262,4.0,-999.0,93,-99.99,,,0.01,weatherlink.com 1.10,2013-02-06 02:20:00,
2013-02-05 21:35:00,30.0,28.0,29.93,West,277,7.0,-999.0,93,-99.99,,,0.01,weatherlink.com 1.10,2013-02-06 02:35:00,
2013-02-05 21:50:00,30.3,28.0,29.94,West,279,11.0,-999.0,92,-99.99,,,0.01,weatherlink.com 1.10,2013-02-06 02:50:00,
2013-02-05 22:05:00,30.3,28.0,29.95,WNW,292,11.0,-999.0,90,-99.99,,,0.01,weatherlink.com 1.10,2013-02-06 03:05:00,
2013-02-05 22:20:00,30.0,27.0,29.95,West,277,11.0,-999.0,89,-99.99,,,0.01,weatherlink.com 1.10,2013-02-06 03:20:00,
2013-02-05 22:35:00,30.0,26.0,29.96,West,270,7.0,-999.0,86,-99.99,,,0.01,weatherlink.com 1.10,2013-02-06 03:35:00,
2013-02-05 22:50:00,29.8,26.0,29.96,NW,316,8.0,-999.0,86,-99.99,,,0.01,weatherlink.com 1.10,2013-02-06 03:50:00,
2013-02-05 23:05:00,30.0,26.0,29.96,West,278,9.0,-999.0,85,-99.99,,,0.01,weatherlink.com 1.10,2013-02-06 04:05:00,
2013-02-05 23:20:00,30.0,26.0,29.97,WNW,303,12.0,-999.0,85,-99.99,,,0.01,weatherlink.com 1.10,2013-02-06 04:20:00,
2013-02-05 23:35:00,30.0,26.0,29.98,West,269,6.0,-999.0,86,-99.99,,,0.01,weatherlink.com 1.10,2013-02-06 04:35:00,
2013-02-05 23:50:00,30.0,26.0,29.99,West,279,7.0,-999.0,86,-99.99,,,0.01,weatherlink.com 1.10,2013-02-06 04:50:00,